Airfield :
LOGIN :

Register | Disclaimer

   EN    FR    IT 

 










Legend :    VFR   Marginal VFR   IFR   Intensive IFR   Very Intensive IFR
Visi :
Ceiling :
>= 8 km
>= 3000ft
5 to 8 km
1000 to 3000 ft
1500m to 5 km
500 to 1000 ft
800 to 1500m
200 to 500 ft
< 800m
< 200 ft
Symbols :   Thunderstorms  Fog  Heavy snow  Heavy precipitations  Wind > 20 kt
SIGMETs :     Misc.  Thunderstorms  Icing  Turbulence  Mountain Waves  Volcanic Ashes






- Airport Elevation : 247 ft
- IATA code : BLL


EKBI - Billund

CURRENT METAR :
  • 112150Z AUTO 19005KT 160V240 8000 OVC005/// 05/04 Q1001

EXPIRED METARs :
  • 112120Z AUTO 19006KT 6000 OVC004/// 05/04 Q1001
  • 112050Z AUTO 18008KT 150V210 6000 BKN004/// 05/04 Q1001
  • 112020Z AUTO 18006KT 150V210 6000 OVC004/// 05/05 Q1001
  • 111950Z AUTO 19007KT 7000 OVC004/// 05/05 Q1002
  • 111920Z AUTO 18006KT 7000 OVC004/// 05/05 Q1002

TAF TAF EKBI
Valid from the 11 at 18:00 until the 12 at 18:00 UTC


111702Z 1118/1218 18006KT 9999 SCT006 BKN030
TEMPO 1118/1208 2000 BR BKN002
TEMPO 1208/1212 4000 BR BKN006
TEMPO 1212/1216 4000 SHRA BR BKN008 SCT010CB



MET'MAP, your aeronautical weather chart ! - Copyright ORBIFLY December 2007 - Disclaimer

ORBIFLY MET'MAP TEAM :

Programming & Development : Alexandra Zaïnal
Concept & original design : Baudouin d'Aumeries
Assistance for programming : Marc-Olivier Méhu
Technical & hardware support : Manuel Goepfert

Contact : metmap@orbifly.com




SOURCES & CREDITS :

   NOAA